Time;durP1;ratioP1;P1;durP2;ratioP2;P2;SDS_P1;SDS_P2;PMS_P1;PMS_P2;Temp;Humidity;BMP_temperature;BMP_pressure;BME280_temperature;BME280_humidity;BME280_pressure;Samples;Min_cycle;Max_cycle;Signal;HPM_P1;HPM_P2
2022/02/28 00:00:20;;;;;;;;;;;;;;;-2.90;100.00;96988.09;1038943;28;20267;-70
2022/02/28 00:01:11;;;;;;;;;;;;;;;-2.89;100.00;96981.19;1037819;28;19921;-70
2022/02/28 00:01:41;;;;;;;;;;;;;;;-2.85;100.00;96987.66;1034961;28;20000;-70
2022/02/28 00:02:11;;;;;;;;;;;;;;;-2.89;100.00;96982.00;1030463;28;19914;-70
2022/02/28 00:02:42;;;;;;;;;;;;;;;-2.87;100.00;96974.16;1034937;28;20276;-70
2022/02/28 00:03:12;;;;;;;;;;;;;;;-2.89;100.00;96978.63;1035587;28;20624;-70
2022/02/28 00:03:42;;;;;;;;;;;;;;;-2.87;100.00;96979.31;1031252;28;19924;-70
2022/02/28 00:04:12;;;;;;;;;;;;;;;-2.88;100.00;96987.97;1035248;28;20431;-70
2022/02/28 00:04:43;;;;;;;;;;;;;;;-2.93;100.00;96985.81;1035330;28;19902;-70
2022/02/28 00:05:13;;;;;;;;;;;;;;;-2.94;100.00;96978.28;1031343;28;20378;-70
2022/02/28 00:05:44;;;;;;;;;;;;;;;-2.95;100.00;96985.19;1035430;28;19909;-71
2022/02/28 00:06:15;;;;;;;;;;;;;;;-2.99;100.00;96978.69;1031500;28;19921;-69
2022/02/28 00:06:45;;;;;;;;;;;;;;;-2.98;100.00;96984.66;1029445;28;19914;-70
2022/02/28 00:07:16;;;;;;;;;;;;;;;-3.02;100.00;96981.56;1035310;28;20369;-70
2022/02/28 00:07:49;;;;;;;;;;;;;;;-3.05;100.00;96987.00;1031548;28;20644;-70
2022/02/28 00:08:19;;;;;;;;;;;;;;;-3.05;100.00;96978.47;1030727;28;19929;-71
2022/02/28 00:08:49;;;;;;;;;;;;;;;-3.06;100.00;96979.44;1031828;28;19941;-70
2022/02/28 00:09:20;;;;;;;;;;;;;;;-3.05;100.00;96991.31;1035221;28;19945;-71
2022/02/28 00:09:50;;;;;;;;;;;;;;;-3.04;100.00;96985.25;1026823;28;19930;-70
2022/02/28 00:10:20;;;;;;;;;;;;;;;-3.09;100.00;96986.47;1034605;28;19928;-69
2022/02/28 00:10:54;;;;;;;;;;;;;;;-3.12;100.00;96986.78;1027375;28;20292;-70
2022/02/28 00:11:24;;;;;;;;;;;;;;;-3.09;100.00;96989.03;1031988;28;19929;-70
2022/02/28 00:11:54;;;;;;;;;;;;;;;-3.10;100.00;96984.88;1035170;28;19932;-70
2022/02/28 00:12:24;;;;;;;;;;;;;;;-3.06;100.00;96979.44;1031727;28;19910;-71
2022/02/28 00:12:57;;;;;;;;;;;;;;;-3.02;100.00;96985.88;1035120;28;19921;-70
2022/02/28 00:13:28;;;;;;;;;;;;;;;-3.05;100.00;96981.88;1039298;28;20452;-70
2022/02/28 00:13:58;;;;;;;;;;;;;;;-3.03;100.00;96986.84;1035231;28;19976;-70
2022/02/28 00:14:28;;;;;;;;;;;;;;;-3.01;100.00;96987.53;1035287;28;19976;-70
2022/02/28 00:14:59;;;;;;;;;;;;;;;-3.02;100.00;96983.31;1030925;28;19929;-70
2022/02/28 00:15:29;;;;;;;;;;;;;;;-2.99;100.00;96985.59;1035126;28;19928;-70
2022/02/28 00:15:59;;;;;;;;;;;;;;;-3.00;100.00;96984.81;1026176;28;20899;-70
2022/02/28 00:16:30;;;;;;;;;;;;;;;-2.98;100.00;96982.91;1027380;28;19922;-71
2022/02/28 00:17:00;;;;;;;;;;;;;;;-3.01;100.00;96985.75;1035000;28;19952;-70
2022/02/28 00:17:30;;;;;;;;;;;;;;;-2.96;100.00;96986.13;1035495;28;19975;-71
2022/02/28 00:18:00;;;;;;;;;;;;;;;-2.96;100.00;96990.44;1043453;28;19929;-70
2022/02/28 00:18:31;;;;;;;;;;;;;;;-2.97;100.00;96983.72;1043519;28;19921;-70
2022/02/28 00:19:01;;;;;;;;;;;;;;;-2.99;100.00;96985.59;1043407;28;19913;-71
2022/02/28 00:19:34;;;;;;;;;;;;;;;-2.92;100.00;96989.19;1042700;28;19956;-73
2022/02/28 00:20:05;;;;;;;;;;;;;;;-2.91;100.00;96983.13;1039223;28;20147;-71
2022/02/28 00:20:35;;;;;;;;;;;;;;;-2.92;100.00;96977.19;1039145;28;19941;-71
2022/02/28 00:21:06;;;;;;;;;;;;;;;-2.96;100.00;96986.13;1035082;28;19968;-70
2022/02/28 00:21:37;;;;;;;;;;;;;;;-2.97;100.00;96983.72;1035323;28;19917;-70
2022/02/28 00:22:07;;;;;;;;;;;;;;;-3.00;100.00;96981.44;1035495;28;19922;-70
2022/02/28 00:22:37;;;;;;;;;;;;;;;-2.98;100.00;96987.25;1035253;28;19929;-70
2022/02/28 00:23:10;;;;;;;;;;;;;;;-3.01;100.00;96982.41;1041069;28;19924;-71
2022/02/28 00:23:40;;;;;;;;;;;;;;;-3.02;100.00;96985.88;1035197;28;20012;-70
2022/02/28 00:24:10;;;;;;;;;;;;;;;-3.05;100.00;96981.03;1031354;28;19984;-70
2022/02/28 00:24:41;;;;;;;;;;;;;;;-3.08;100.00;96982.97;1031721;28;19922;-70
2022/02/28 00:25:11;;;;;;;;;;;;;;;-3.08;100.00;96988.09;1028721;28;19941;-70
2022/02/28 00:25:42;;;;;;;;;;;;;;;-3.04;100.00;96990.38;1036310;28;19984;-70
2022/02/28 00:26:12;;;;;;;;;;;;;;;-3.03;100.00;96990.22;1036654;28;19931;-70
2022/02/28 00:26:42;;;;;;;;;;;;;;;-3.03;100.00;96987.66;1031975;28;20601;-70
2022/02/28 00:27:12;;;;;;;;;;;;;;;-3.02;100.00;96986.69;1028033;28;20425;-70
2022/02/28 00:27:43;;;;;;;;;;;;;;;-3.02;100.00;96993.59;1027454;28;19956;-70
2022/02/28 00:28:13;;;;;;;;;;;;;;;-3.00;100.00;96989.13;1028635;28;19945;-69
2022/02/28 00:28:43;;;;;;;;;;;;;;;-2.99;100.00;96988.16;1031347;28;19922;-70
2022/02/28 00:29:14;;;;;;;;;;;;;;;-3.00;100.00;96989.94;1035428;28;19922;-71
2022/02/28 00:29:44;;;;;;;;;;;;;;;-3.02;100.00;96988.47;1042410;28;20258;-71
2022/02/28 00:30:15;;;;;;;;;;;;;;;-3.00;100.00;96984.00;1039692;28;19925;-69
2022/02/28 00:30:45;;;;;;;;;;;;;;;-3.21;100.00;96948.34;1035679;28;19918;-71
2022/02/28 00:31:15;;;;;;;;;;;;;;;-2.98;100.00;96984.66;1031349;28;19969;-69
2022/02/28 00:31:46;;;;;;;;;;;;;;;-3.02;100.00;96986.69;1031473;28;19984;-70
2022/02/28 00:32:16;;;;;;;;;;;;;;;-3.01;100.00;96987.53;1039479;28;19928;-69
2022/02/28 00:32:46;;;;;;;;;;;;;;;-3.04;100.00;96982.69;1035185;28;19953;-71
2022/02/28 00:33:16;;;;;;;;;;;;;;;-3.04;100.00;96983.47;1035292;28;19914;-71
2022/02/28 00:33:47;;;;;;;;;;;;;;;-3.01;100.00;96983.19;1039281;28;19924;-71
2022/02/28 00:34:17;;;;;;;;;;;;;;;-3.03;100.00;96984.28;1039296;28;19921;-71
2022/02/28 00:34:47;;;;;;;;;;;;;;;-3.06;100.00;96984.56;1039245;28;19971;-70
2022/02/28 00:35:18;;;;;;;;;;;;;;;-3.08;100.00;96984.75;1039317;28;20425;-70
2022/02/28 00:35:48;;;;;;;;;;;;;;;-3.08;100.00;96980.41;1039932;28;19981;-71
2022/02/28 00:36:18;;;;;;;;;;;;;;;-3.09;100.00;96980.53;1038806;28;19956;-72
2022/02/28 00:36:49;;;;;;;;;;;;;;;-3.11;100.00;96988.41;1035812;28;19922;-72
2022/02/28 00:37:19;;;;;;;;;;;;;;;-3.13;100.00;96977.47;1035359;28;19913;-71
2022/02/28 00:37:49;;;;;;;;;;;;;;;-3.16;100.00;96980.31;1034907;28;19957;-72
2022/02/28 00:38:20;;;;;;;;;;;;;;;-3.12;100.00;96976.53;1035760;28;19927;-72
2022/02/28 00:38:50;;;;;;;;;;;;;;;-3.14;100.00;96975.84;1035358;28;20533;-72
2022/02/28 00:39:20;;;;;;;;;;;;;;;-3.08;100.00;96980.41;1039481;28;19921;-72
2022/02/28 00:39:51;;;;;;;;;;;;;;;-3.15;100.00;96979.38;1043008;28;20274;-72
2022/02/28 00:40:21;;;;;;;;;;;;;;;-3.16;100.00;96980.31;1039141;28;19921;-71
2022/02/28 00:40:51;;;;;;;;;;;;;;;-3.17;100.00;96976.13;1038995;28;19917;-72
2022/02/28 00:41:21;;;;;;;;;;;;;;;-3.11;100.00;96973.00;1034846;28;19918;-71
2022/02/28 00:41:52;;;;;;;;;;;;;;;-3.09;100.00;96978.78;1030635;28;19925;-71
2022/02/28 00:42:22;;;;;;;;;;;;;;;-3.10;100.00;96977.16;1027520;28;19932;-71
2022/02/28 00:42:52;;;;;;;;;;;;;;;-3.11;100.00;96975.56;1027037;28;19922;-71
2022/02/28 00:43:23;;;;;;;;;;;;;;;-3.16;100.00;96972.59;1027050;28;20448;-71
2022/02/28 00:43:53;;;;;;;;;;;;;;;-3.17;100.00;96983.84;1027426;28;20487;-71
2022/02/28 00:44:23;;;;;;;;;;;;;;;-3.17;100.00;96976.13;1031200;28;19917;-71
2022/02/28 00:44:54;;;;;;;;;;;;;;;-3.18;100.00;96974.53;1027351;28;20399;-71
2022/02/28 00:45:24;;;;;;;;;;;;;;;-3.17;100.00;96976.13;1031398;28;20438;-71
2022/02/28 00:45:54;;;;;;;;;;;;;;;-3.21;100.00;96977.38;1024303;28;20444;-71
2022/02/28 00:46:25;;;;;;;;;;;;;;;-3.17;100.00;96972.78;1029559;28;19926;-71
2022/02/28 00:46:55;;;;;;;;;;;;;;;-3.20;100.00;96971.28;1031155;28;19928;-70
2022/02/28 00:47:25;;;;;;;;;;;;;;;-3.14;100.00;96968.16;1035307;28;19996;-71
2022/02/28 00:47:55;;;;;;;;;;;;;;;-3.14;100.00;96978.41;1038336;28;19921;-71
2022/02/28 00:48:26;;;;;;;;;;;;;;;-3.15;100.00;96973.44;1043445;28;19935;-71
2022/02/28 00:48:56;;;;;;;;;;;;;;;-3.17;100.00;96975.34;1035213;28;20438;-70
2022/02/28 00:49:29;;;;;;;;;;;;;;;-3.14;100.00;96973.28;1035246;28;20414;-70
2022/02/28 00:49:59;;;;;;;;;;;;;;;-3.18;100.00;96977.09;1027790;28;19957;-71
2022/02/28 00:50:30;;;;;;;;;;;;;;;-3.18;100.00;96979.66;1027183;28;19926;-72
2022/02/28 00:51:00;;;;;;;;;;;;;;;-3.18;100.00;96976.28;1031176;28;20489;-71
2022/02/28 00:51:30;;;;;;;;;;;;;;;-3.19;100.00;96975.47;1028406;28;20005;-72
2022/02/28 00:52:04;;;;;;;;;;;;;;;-3.14;100.00;96978.41;1023126;28;19923;-71
2022/02/28 00:52:34;;;;;;;;;;;;;;;-3.19;100.00;96980.59;1034470;28;20302;-71
2022/02/28 00:53:04;;;;;;;;;;;;;;;-3.20;100.00;96980.75;1031380;28;19921;-72
2022/02/28 00:53:35;;;;;;;;;;;;;;;-3.24;100.00;96982.00;1035471;28;19954;-72
2022/02/28 00:54:06;;;;;;;;;;;;;;;-3.30;100.00;96975.69;1031079;28;20566;-72
2022/02/28 00:54:36;;;;;;;;;;;;;;;-3.33;100.00;96978.53;1023979;28;20009;-72
2022/02/28 00:55:06;;;;;;;;;;;;;;;-3.35;100.00;96980.47;1027178;28;19924;-71
2022/02/28 00:55:37;;;;;;;;;;;;;;;-3.38;100.00;96983.31;1023187;28;19919;-72
2022/02/28 00:56:07;;;;;;;;;;;;;;;-3.37;100.00;96984.91;1031475;28;19976;-71
2022/02/28 00:56:38;;;;;;;;;;;;;;;-3.36;100.00;96987.31;1033600;28;19914;-72
2022/02/28 00:57:08;;;;;;;;;;;;;;;-3.39;100.00;96984.25;1035097;28;19922;-71
2022/02/28 00:57:38;;;;;;;;;;;;;;;-3.37;100.00;96982.34;1039262;28;19917;-71
2022/02/28 00:58:09;;;;;;;;;;;;;;;-3.39;100.00;96990.19;1040249;28;20386;-72
2022/02/28 00:58:39;;;;;;;;;;;;;;;-3.42;100.00;96985.38;1043511;28;19921;-71
2022/02/28 00:59:09;;;;;;;;;;;;;;;-3.43;100.00;96978.59;1047909;28;19927;-71
2022/02/28 00:59:40;;;;;;;;;;;;;;;-3.45;100.00;96985.66;1043298;28;19959;-71
2022/02/28 01:00:14;;;;;;;;;;;;;;;-3.47;100.00;96976.47;1046664;28;19924;-72
2022/02/28 01:00:44;;;;;;;;;;;;;;;-3.49;100.00;96986.06;1038801;28;20367;-72
2022/02/28 01:01:29;;;;;;;;;;;;;;;-3.57;100.00;96985.03;1038759;28;19940;-71
2022/02/28 01:02:00;;;;;;;;;;;;;;;-3.58;100.00;96985.19;1039052;28;20567;-71
2022/02/28 01:02:30;;;;;;;;;;;;;;;-3.58;100.00;96980.84;1040111;28;19928;-72
2022/02/28 01:03:01;;;;;;;;;;;;;;;-3.59;100.00;96983.53;1043576;28;19917;-72
2022/02/28 01:03:31;;;;;;;;;;;;;;;-3.59;100.00;96979.25;1042498;28;19917;-71
2022/02/28 01:04:02;;;;;;;;;;;;;;;-3.64;100.00;96978.84;1039175;28;19920;-71
2022/02/28 01:04:32;;;;;;;;;;;;;;;-3.65;100.00;96984.13;1039298;28;20680;-71
2022/02/28 01:05:03;;;;;;;;;;;;;;;-3.68;100.00;96981.84;1031153;28;19914;-72
2022/02/28 01:05:33;;;;;;;;;;;;;;;-3.71;100.00;96980.38;1027045;28;19944;-72
2022/02/28 01:06:03;;;;;;;;;;;;;;;-3.74;100.00;96979.84;1019221;29;19919;-71
2022/02/28 01:06:34;;;;;;;;;;;;;;;-3.78;100.00;96979.34;1019960;28;20529;-71
2022/02/28 01:07:07;;;;;;;;;;;;;;;-3.82;100.00;96978.00;1027215;28;19930;-71
2022/02/28 01:07:38;;;;;;;;;;;;;;;-3.86;100.00;96976.66;1023875;28;20328;-71
2022/02/28 01:08:08;;;;;;;;;;;;;;;-3.88;100.00;96981.94;1034461;28;19984;-71
2022/02/28 01:08:39;;;;;;;;;;;;;;;-3.92;100.00;96977.25;1038489;28;19925;-72
2022/02/28 01:09:09;;;;;;;;;;;;;;;-3.96;100.00;96976.69;1037782;28;20315;-71
2022/02/28 01:09:39;;;;;;;;;;;;;;;-3.99;100.00;96977.00;1038579;28;19917;-71
2022/02/28 01:10:10;;;;;;;;;;;;;;;-4.01;100.00;96980.63;1041204;28;19944;-72
2022/02/28 01:10:41;;;;;;;;;;;;;;;-4.07;100.00;96980.25;1043494;28;19912;-71
2022/02/28 01:11:11;;;;;;;;;;;;;;;-4.04;100.00;96982.53;1043306;28;19963;-71
2022/02/28 01:11:41;;;;;;;;;;;;;;;-4.03;100.00;96983.31;1034884;28;20024;-70
2022/02/28 01:12:11;;;;;;;;;;;;;;;-4.05;100.00;96977.56;1039045;28;19917;-71
2022/02/28 01:12:42;;;;;;;;;;;;;;;-4.07;100.00;96980.25;1039227;28;19921;-70
2022/02/28 01:13:12;;;;;;;;;;;;;;;-4.09;100.00;96983.88;1035037;28;19944;-71
2022/02/28 01:13:42;;;;;;;;;;;;;;;-4.13;100.00;96978.22;1035766;28;20473;-71
2022/02/28 01:14:15;;;;;;;;;;;;;;;-4.12;100.00;96981.63;1039441;28;19917;-71
2022/02/28 01:14:45;;;;;;;;;;;;;;;-4.13;100.00;96978.22;1043695;28;19932;-72
2022/02/28 01:15:16;;;;;;;;;;;;;;;-4.05;100.00;96983.47;1043057;28;19991;-68
2022/02/28 01:15:46;;;;;;;;;;;;;;;-4.00;100.00;96983.03;1039258;28;19967;-71
2022/02/28 01:16:16;;;;;;;;;;;;;;;-3.97;100.00;96987.09;1038014;28;19917;-70
2022/02/28 01:16:47;;;;;;;;;;;;;;;-4.00;100.00;96984.81;1035871;28;19913;-71
2022/02/28 01:17:17;;;;;;;;;;;;;;;-4.06;100.00;96984.44;1039092;28;20624;-70
2022/02/28 01:17:48;;;;;;;;;;;;;;;-4.02;100.00;96982.41;1035284;28;20302;-69
2022/02/28 01:18:18;;;;;;;;;;;;;;;-3.97;100.00;96987.09;1031362;28;20380;-70
2022/02/28 01:18:49;;;;;;;;;;;;;;;-3.99;100.00;96986.41;1032174;28;19945;-70
2022/02/28 01:19:19;;;;;;;;;;;;;;;-3.94;100.00;96989.38;1035605;28;20323;-69
2022/02/28 01:19:50;;;;;;;;;;;;;;;-3.95;100.00;96993.69;1034879;28;19909;-70
2022/02/28 01:20:23;;;;;;;;;;;;;;;-3.96;100.00;96986.13;1039574;28;20801;-71
2022/02/28 01:20:54;;;;;;;;;;;;;;;-3.90;100.00;96981.25;1043270;28;19956;-70
2022/02/28 01:21:24;;;;;;;;;;;;;;;-3.84;100.00;96985.03;1039998;28;20433;-70
2022/02/28 01:21:54;;;;;;;;;;;;;;;-3.70;100.00;96976.84;1034374;28;19914;-67
2022/02/28 01:22:25;;;;;;;;;;;;;;;-3.64;100.00;96976.28;1032990;28;19969;-72
2022/02/28 01:22:55;;;;;;;;;;;;;;;-3.60;100.00;96980.16;1031076;28;19914;-71
2022/02/28 01:23:25;;;;;;;;;;;;;;;-3.60;100.00;96975.03;1026934;28;19914;-71
2022/02/28 01:23:56;;;;;;;;;;;;;;;-3.64;100.00;96978.84;1031098;28;19920;-71
2022/02/28 01:24:26;;;;;;;;;;;;;;;-3.66;100.00;96975.59;1027051;28;20005;-70
2022/02/28 01:24:56;;;;;;;;;;;;;;;-3.68;100.00;96979.28;1031146;28;19914;-70
2022/02/28 01:25:27;;;;;;;;;;;;;;;-3.64;100.00;96978.03;1035138;28;19909;-71
2022/02/28 01:25:58;;;;;;;;;;;;;;;-3.63;100.00;96983.03;1036938;28;20004;-70
2022/02/28 01:26:31;;;;;;;;;;;;;;;-3.62;100.00;96983.81;1035724;28;19918;-71
2022/02/28 01:27:01;;;;;;;;;;;;;;;-3.61;100.00;96976.00;1035644;28;19926;-69
2022/02/28 01:27:31;;;;;;;;;;;;;;;-3.67;100.00;96976.56;1030865;28;20044;-71
2022/02/28 01:28:02;;;;;;;;;;;;;;;-3.68;100.00;96974.97;1031619;28;20292;-71
2022/02/28 01:28:32;;;;;;;;;;;;;;;-3.72;100.00;96973.63;1031285;28;19929;-71
2022/02/28 01:29:02;;;;;;;;;;;;;;;-3.71;100.00;96975.25;1035200;28;19913;-71
2022/02/28 01:29:33;;;;;;;;;;;;;;;-3.75;100.00;96973.91;1038169;28;19913;-71
2022/02/28 01:30:03;;;;;;;;;;;;;;;-3.80;100.00;96973.53;1035024;28;19910;-70
2022/02/28 01:30:34;;;;;;;;;;;;;;;-3.79;100.00;96977.69;1038907;28;19909;-70
2022/02/28 01:31:04;;;;;;;;;;;;;;;-3.77;100.00;96973.25;1037305;28;19913;-72
2022/02/28 01:31:34;;;;;;;;;;;;;;;-3.81;100.00;96977.03;1043261;28;19913;-70
2022/02/28 01:32:05;;;;;;;;;;;;;;;-3.76;100.00;96976.59;1047327;28;19913;-70
2022/02/28 01:32:35;;;;;;;;;;;;;;;-3.75;100.00;96976.47;1047543;28;20017;-69
2022/02/28 01:33:05;;;;;;;;;;;;;;;-3.68;100.00;96979.28;1043245;28;19912;-71
2022/02/28 01:33:36;;;;;;;;;;;;;;;-3.65;100.00;96976.44;1039142;28;20015;-68
2022/02/28 01:34:06;;;;;;;;;;;;;;;-3.65;100.00;96974.69;1035434;28;19913;-69
2022/02/28 01:34:36;;;;;;;;;;;;;;;-3.68;100.00;96979.28;1030907;28;20674;-71
2022/02/28 01:35:07;;;;;;;;;;;;;;;-3.62;100.00;96981.25;1034521;28;19944;-70
2022/02/28 01:35:38;;;;;;;;;;;;;;;-3.58;100.00;96974.91;1034489;28;20375;-70
2022/02/28 01:36:08;;;;;;;;;;;;;;;-3.57;100.00;96982.44;1030864;28;19917;-69
2022/02/28 01:36:38;;;;;;;;;;;;;;;-3.54;100.00;96976.25;1034877;28;19909;-70
2022/02/28 01:37:09;;;;;;;;;;;;;;;-3.53;100.00;96977.03;1035199;28;19917;-71
2022/02/28 01:37:39;;;;;;;;;;;;;;;-3.52;100.00;96981.22;1027317;28;19911;-70
2022/02/28 01:38:09;;;;;;;;;;;;;;;-3.48;100.00;96985.13;1022890;28;19911;-70
2022/02/28 01:38:39;;;;;;;;;;;;;;;-3.51;100.00;96981.09;1027044;28;19922;-69
2022/02/28 01:39:10;;;;;;;;;;;;;;;-3.50;100.00;96976.75;1031233;28;20564;-70
2022/02/28 01:39:45;;;;;;;;;;;;;;;-3.52;100.00;96983.78;1030747;28;20790;-69
2022/02/28 01:40:16;;;;;;;;;;;;;;;-3.53;100.00;96982.16;1030997;28;19914;-71
2022/02/28 01:40:46;;;;;;;;;;;;;;;-3.58;100.00;96980.03;1035101;28;20298;-71
2022/02/28 01:41:17;;;;;;;;;;;;;;;-3.63;100.00;96979.66;1037493;28;19932;-72
2022/02/28 01:41:47;;;;;;;;;;;;;;;-3.61;100.00;96975.19;1035572;28;19914;-71
2022/02/28 01:42:17;;;;;;;;;;;;;;;-3.64;100.00;96981.41;1030965;28;19969;-70
2022/02/28 01:42:48;;;;;;;;;;;;;;;-3.66;100.00;96970.47;1035054;28;19973;-71
2022/02/28 01:43:18;;;;;;;;;;;;;;;-3.67;100.00;96975.75;1030885;28;19914;-69
2022/02/28 01:43:48;;;;;;;;;;;;;;;-3.69;100.00;96977.66;1035215;28;19924;-70
2022/02/28 01:44:19;;;;;;;;;;;;;;;-3.68;100.00;96979.28;1035001;28;20393;-71
2022/02/28 01:44:49;;;;;;;;;;;;;;;-3.74;100.00;96975.53;1035028;28;19920;-70
2022/02/28 01:45:22;;;;;;;;;;;;;;;-3.81;100.00;96982.19;1039104;28;19968;-70
2022/02/28 01:45:53;;;;;;;;;;;;;;;-3.77;100.00;96975.81;1031521;28;19922;-70
2022/02/28 01:46:23;;;;;;;;;;;;;;;-3.77;100.00;96975.81;1034933;28;20375;-69
2022/02/28 01:46:56;;;;;;;;;;;;;;;-3.80;100.00;96970.97;1039153;28;19925;-70
2022/02/28 01:47:26;;;;;;;;;;;;;;;-3.81;100.00;96972.72;1035937;28;19953;-70
2022/02/28 01:47:57;;;;;;;;;;;;;;;-3.83;100.00;96973.81;1034659;28;19991;-70
2022/02/28 01:48:27;;;;;;;;;;;;;;;-3.83;100.00;96974.59;1033442;28;19909;-70
2022/02/28 01:48:57;;;;;;;;;;;;;;;-3.87;100.00;96973.28;1031254;28;19914;-70
2022/02/28 01:49:28;;;;;;;;;;;;;;;-3.85;100.00;96978.28;1026560;28;20492;-69
2022/02/28 01:49:59;;;;;;;;;;;;;;;-3.87;100.00;96975.03;1026655;28;19918;-70
2022/02/28 01:50:29;;;;;;;;;;;;;;;-3.85;100.00;96973.97;1026655;28;19921;-71
2022/02/28 01:50:59;;;;;;;;;;;;;;;-3.87;100.00;96970.72;1026945;28;19917;-70
2022/02/28 01:51:30;;;;;;;;;;;;;;;-3.88;100.00;96973.44;1025917;28;20429;-70
2022/02/28 01:52:00;;;;;;;;;;;;;;;-3.90;100.00;96971.00;1024919;28;19914;-69
2022/02/28 01:52:30;;;;;;;;;;;;;;;-3.89;100.00;96972.63;1028541;28;19939;-69
2022/02/28 01:53:01;;;;;;;;;;;;;;;-3.92;100.00;96972.13;1030528;28;19925;-72
2022/02/28 01:53:31;;;;;;;;;;;;;;;-3.90;100.00;96972.75;1027010;28;19910;-71
2022/02/28 01:54:02;;;;;;;;;;;;;;;-3.92;100.00;96975.47;1027958;28;19957;-68
2022/02/28 01:54:33;;;;;;;;;;;;;;;-3.92;100.00;96972.13;1030493;28;19920;-72
2022/02/28 01:55:03;;;;;;;;;;;;;;;-3.92;100.00;96977.25;1031817;28;19910;-71
2022/02/28 01:55:34;;;;;;;;;;;;;;;-3.94;100.00;96974.81;1039135;28;20546;-72
2022/02/28 01:56:04;;;;;;;;;;;;;;;-3.96;100.00;96965.63;1031789;28;19922;-71
2022/02/28 01:56:34;;;;;;;;;;;;;;;-3.94;100.00;96969.69;1037551;28;19932;-69
2022/02/28 01:57:07;;;;;;;;;;;;;;;-3.97;100.00;96974.28;1039581;28;20302;-71
2022/02/28 01:57:38;;;;;;;;;;;;;;;-3.96;100.00;96981.81;1040278;28;19909;-71
2022/02/28 01:58:08;;;;;;;;;;;;;;;-3.95;100.00;96972.38;1043734;28;19917;-72
2022/02/28 01:58:38;;;;;;;;;;;;;;;-3.90;100.00;96965.06;1039787;28;20346;-69
2022/02/28 01:59:09;;;;;;;;;;;;;;;-3.90;100.00;96970.19;1031643;28;19917;-70
2022/02/28 01:59:39;;;;;;;;;;;;;;;-3.86;100.00;96966.41;1023099;29;19914;-70
2022/02/28 02:00:13;;;;;;;;;;;;;;;-3.91;100.00;96966.84;1023712;28;19925;-70
2022/02/28 02:00:43;;;;;;;;;;;;;;;-3.89;100.00;96970.06;1028710;28;19914;-69
2022/02/28 02:01:14;;;;;;;;;;;;;;;-3.89;100.00;96969.25;1033134;28;19917;-69
2022/02/28 02:01:44;;;;;;;;;;;;;;;-3.89;100.00;96964.09;1039240;28;20438;-71
2022/02/28 02:02:14;;;;;;;;;;;;;;;-3.92;100.00;96969.56;1035769;28;19926;-70
2022/02/28 02:02:51;;;;;;;;;;;;;;;-3.95;100.00;96965.50;1035790;28;19936;-71
2022/02/28 02:03:21;;;;;;;;;;;;;;;-3.96;100.00;96961.31;1032054;28;20402;-71
2022/02/28 02:03:51;;;;;;;;;;;;;;;-3.95;100.00;96968.06;1032482;28;19918;-70
2022/02/28 02:04:22;;;;;;;;;;;;;;;-3.93;100.00;96968.72;1031733;28;19914;-69
2022/02/28 02:04:52;;;;;;;;;;;;;;;-3.96;100.00;96963.06;1027680;28;19921;-70
2022/02/28 02:05:22;;;;;;;;;;;;;;;-3.95;100.00;96969.81;1031603;28;19921;-70
2022/02/28 02:05:53;;;;;;;;;;;;;;;-3.98;100.00;96968.34;1031814;28;19918;-70
2022/02/28 02:06:23;;;;;;;;;;;;;;;-3.94;100.00;96963.75;1031694;28;20413;-71
2022/02/28 02:06:53;;;;;;;;;;;;;;;-3.97;100.00;96964.81;1035744;28;19917;-71
2022/02/28 02:07:24;;;;;;;;;;;;;;;-3.99;100.00;96958.22;1035610;28;19917;-71
2022/02/28 02:07:54;;;;;;;;;;;;;;;-3.98;100.00;96963.22;1034749;28;20464;-71
2022/02/28 02:08:26;;;;;;;;;;;;;;;-3.98;100.00;96962.41;1031536;28;19958;-69
2022/02/28 02:08:56;;;;;;;;;;;;;;;-3.96;100.00;96968.19;1027472;28;20135;-71
2022/02/28 02:09:26;;;;;;;;;;;;;;;-3.95;100.00;96965.50;1031400;28;19929;-70
2022/02/28 02:09:57;;;;;;;;;;;;;;;-3.96;100.00;96961.31;1031737;28;19917;-71
2022/02/28 02:10:28;;;;;;;;;;;;;;;-3.96;100.00;96965.63;1035815;28;20390;-71
2022/02/28 02:10:58;;;;;;;;;;;;;;;-3.93;100.00;96966.16;1039763;28;20344;-70
2022/02/28 02:11:29;;;;;;;;;;;;;;;-3.96;100.00;96966.44;1035264;28;20569;-69
2022/02/28 02:11:59;;;;;;;;;;;;;;;-3.94;100.00;96968.88;1034610;28;19913;-70
2022/02/28 02:12:30;;;;;;;;;;;;;;;-3.93;100.00;96962.78;1031657;28;19988;-71
2022/02/28 02:13:00;;;;;;;;;;;;;;;-3.94;100.00;96958.63;1027656;28;19914;-70
2022/02/28 02:13:33;;;;;;;;;;;;;;;-3.97;100.00;96961.47;1031429;28;20410;-71
2022/02/28 02:14:04;;;;;;;;;;;;;;;-4.20;100.00;96923.38;1036596;28;19921;-70
2022/02/28 02:14:34;;;;;;;;;;;;;;;-3.96;100.00;96960.50;1044380;28;19920;-70
2022/02/28 02:15:06;;;;;;;;;;;;;;;-4.03;100.00;96963.63;1039679;28;20003;-70
2022/02/28 02:15:36;;;;;;;;;;;;;;;-4.04;100.00;96969.72;1031634;28;19917;-71
2022/02/28 02:16:06;;;;;;;;;;;;;;;-3.99;100.00;96964.19;1031747;28;19933;-70
2022/02/28 02:16:37;;;;;;;;;;;;;;;-3.99;100.00;96963.34;1035680;28;20364;-69
2022/02/28 02:17:08;;;;;;;;;;;;;;;-3.98;100.00;96967.53;1031552;28;19957;-70
2022/02/28 02:17:38;;;;;;;;;;;;;;;-3.99;100.00;96961.63;1035583;28;20000;-70
2022/02/28 02:18:08;;;;;;;;;;;;;;;-4.02;100.00;96967.03;1035919;28;19917;-71
2022/02/28 02:18:39;;;;;;;;;;;;;;;-4.05;100.00;96957.84;1039584;28;19983;-70
2022/02/28 02:19:09;;;;;;;;;;;;;;;-4.04;100.00;96964.59;1043982;28;19917;-71
2022/02/28 02:19:39;;;;;;;;;;;;;;;-4.05;100.00;96973.22;1034969;28;20495;-71
2022/02/28 02:20:30;;;;;;;;;;;;;;;-4.03;100.00;96958.50;1035694;28;19909;-71
2022/02/28 02:21:01;;;;;;;;;;;;;;;-4.04;100.00;96962.03;1033999;28;19913;-70
2022/02/28 02:21:31;;;;;;;;;;;;;;;-4.04;100.00;96964.59;1030792;28;19953;-70
2022/02/28 02:22:02;;;;;;;;;;;;;;;-4.01;100.00;96965.25;1024850;28;20415;-70
2022/02/28 02:22:32;;;;;;;;;;;;;;;-3.97;100.00;96964.03;1027683;28;19996;-71
2022/02/28 02:23:06;;;;;;;;;;;;;;;-3.94;100.00;96968.88;1031575;28;19914;-70
2022/02/28 02:23:36;;;;;;;;;;;;;;;-3.99;100.00;96965.91;1033307;28;20390;-70
2022/02/28 02:24:07;;;;;;;;;;;;;;;-3.97;100.00;96962.25;1043247;28;19917;-70
2022/02/28 02:24:37;;;;;;;;;;;;;;;-3.97;100.00;96958.91;1042275;28;19921;-70
2022/02/28 02:25:07;;;;;;;;;;;;;;;-3.99;100.00;96965.91;1048478;28;19927;-71
2022/02/28 02:25:38;;;;;;;;;;;;;;;-3.98;100.00;96962.41;1048383;28;20286;-70
2022/02/28 02:26:14;;;;;;;;;;;;;;;-3.96;100.00;96966.44;1043758;28;19912;-71
2022/02/28 02:26:44;;;;;;;;;;;;;;;-4.01;100.00;96966.06;1035764;28;19905;-71
2022/02/28 02:27:14;;;;;;;;;;;;;;;-3.99;100.00;96965.91;1031691;28;19997;-72
2022/02/28 02:27:45;;;;;;;;;;;;;;;-3.99;100.00;96966.75;1032466;28;19922;-72
2022/02/28 02:28:16;;;;;;;;;;;;;;;-4.08;100.00;96954.75;1031624;28;20332;-72
2022/02/28 02:28:46;;;;;;;;;;;;;;;-4.02;100.00;96961.91;1031972;28;19914;-70
2022/02/28 02:29:16;;;;;;;;;;;;;;;-4.06;100.00;96970.78;1031497;28;20004;-70
2022/02/28 02:29:46;;;;;;;;;;;;;;;-4.03;100.00;96975.63;1031143;28;19949;-72
2022/02/28 02:30:17;;;;;;;;;;;;;;;-4.08;100.00;96973.50;1035570;28;20426;-69
2022/02/28 02:30:48;;;;;;;;;;;;;;;-4.01;100.00;96975.50;1035773;28;19952;-71
2022/02/28 02:31:18;;;;;;;;;;;;;;;-4.05;100.00;96973.22;1035332;28;19952;-71
2022/02/28 02:31:51;;;;;;;;;;;;;;;-4.05;100.00;96977.56;1032762;28;20365;-71
2022/02/28 02:32:21;;;;;;;;;;;;;;;-4.06;100.00;96979.31;1035298;28;19917;-71
2022/02/28 02:32:52;;;;;;;;;;;;;;;-3.99;100.00;96973.59;1034767;28;19917;-71
2022/02/28 02:33:22;;;;;;;;;;;;;;;-4.01;100.00;96981.44;1039753;28;19913;-70
2022/02/28 02:33:52;;;;;;;;;;;;;;;-3.97;100.00;96974.28;1039774;28;19953;-70
2022/02/28 02:34:23;;;;;;;;;;;;;;;-3.94;100.00;96974.00;1043555;28;19955;-70
2022/02/28 02:34:53;;;;;;;;;;;;;;;-3.94;100.00;96976.56;1039819;28;19917;-69
2022/02/28 02:35:24;;;;;;;;;;;;;;;-3.94;100.00;96979.13;1035576;28;19943;-71
2022/02/28 02:35:54;;;;;;;;;;;;;;;-3.94;100.00;96974.00;1035598;28;19917;-70
2022/02/28 02:36:25;;;;;;;;;;;;;;;-3.89;100.00;96979.50;1031469;28;19909;-70
2022/02/28 02:36:55;;;;;;;;;;;;;;;-3.92;100.00;96977.25;1031577;28;19917;-70
2022/02/28 02:37:25;;;;;;;;;;;;;;;-3.91;100.00;96984.78;1031575;28;20387;-70
2022/02/28 02:37:56;;;;;;;;;;;;;;;-3.94;100.00;96987.63;1023487;29;20380;-70